Etusivu
METAR-TAF:

METAR-TAF

Lentoasemat :

Southamptonin lentoasema

Southampton, Englanti

Leveyspiiri: 50-54N, Pituuspiiri: 001-24W, korkeus merenpinnasta: 9 m

Tämänhetkinen sää

Tämä raportti tehtiin 5 tuntia ja 17 minuuttia sitten, kello 22.20 UTC
Tuuli 1 kn eri suunnista
Lämpötila 7°C
Kosteus 87%
Ilmanpaine 1025 hPa
Näkyvyys 10 km tai enemmän
Hajonneita pilviä 4000 ft:n korkeudessa

METAR: EGHI 182220Z VRB01KT 9999 BKN040 07/05 Q1025

Aika: 03:37 (03:37 UTC)

Sääennuste

Tämä raportti tehtiin 7 tuntia ja 38 minuuttia sitten, kello 19.59 UTC
Ennuste voimassa 18. päivästä klo 21 UTC - 18. päivään klo 23 UTC
Tuuli 4 kn lännestä
Näkyvyys 10 km tai enemmän
Hajanaisia pilviä 3000 ft:n korkeudessa
Ajoittain
18. päivästä klo 21 UTC - 18. päivään klo 23 UTC
Näkyvyys: 6000 m
Hajonneita pilviä 400 ft:n korkeudessa

TAF: EGHI 181959Z 1821/1823 28004KT 9999 SCT030 TEMPO 1821/1823 6000 BKN004

Säähavainnot ja -ennusteet yli 4000 lentoasemalta (METAR- ja TAF-raportit).

Käytössä olevat sääasemat on merkitty karttaan keltaisilla ja punaisilla pisteillä.

Aseta hiiri pisteen päälle nähdäksesi sääaseman nimen.

Klikkaa sitten nähdäksesi säähavainnot ja -ennusteet.

Kartan vaihtaminen: klikkaa mustalla rastilla varustettuja vihreitä pisteitä, niin voit zoomata sisään; viivalla varustettua vihreää pistettä, niin voit zoomata ulos tai vihreitä nuolia, niin pääset viereisille kartoille.


METAR-TAF: